createdAt,value
2023-03-10T00:01:21.092Z,10.25
2023-03-10T00:03:52.132Z,12.77
2023-03-10T00:06:23.923Z,5.75
2023-03-10T00:08:52.402Z,10.02
2023-03-10T00:11:20.783Z,9.30
2023-03-10T00:13:49.276Z,7.10
2023-03-10T00:16:20.157Z,8.40
2023-03-10T00:18:48.752Z,8.07
2023-03-10T00:21:18.227Z,8.35
2023-03-10T00:23:48.138Z,6.13
2023-03-10T00:26:17.908Z,7.88
2023-03-10T00:28:48.440Z,5.53
2023-03-10T00:31:19.370Z,6.80
2023-03-10T00:33:47.965Z,18.27
2023-03-10T00:36:18.315Z,6.65
2023-03-10T00:38:50.349Z,7.13
2023-03-10T00:41:20.233Z,8.45
2023-03-10T00:43:50.278Z,5.80
2023-03-10T00:46:18.998Z,8.02
2023-03-10T00:48:48.213Z,6.93
2023-03-10T00:51:19.870Z,9.35
2023-03-10T00:53:50.793Z,9.07
2023-03-10T00:56:20.889Z,6.13
2023-03-10T00:58:53.021Z,7.30
2023-03-10T01:01:24.762Z,14.68
2023-03-10T01:03:57.127Z,12.35
2023-03-10T01:06:26.443Z,8.45
2023-03-10T01:08:56.190Z,7.90
2023-03-10T01:11:26.105Z,9.00
2023-03-10T01:13:57.057Z,14.23
2023-03-10T01:16:25.432Z,7.45
2023-03-10T01:18:53.682Z,9.32
2023-03-10T01:21:24.465Z,6.55
2023-03-10T01:23:53.069Z,7.07
2023-03-10T01:26:22.687Z,9.80
2023-03-10T01:28:51.664Z,11.35
2023-03-10T01:31:23.231Z,5.82
2023-03-10T01:33:53.785Z,7.25
2023-03-10T01:36:25.875Z,8.02
2023-03-10T01:38:55.085Z,9.55
2023-03-10T01:41:24.776Z,8.25
2023-03-10T01:43:53.928Z,9.27
2023-03-10T01:46:38.631Z,8.63
2023-03-10T01:49:19.890Z,19.60
2023-03-10T01:51:55.958Z,11.73
2023-03-10T01:54:28.877Z,6.20
2023-03-10T01:56:59.676Z,17.65
2023-03-10T01:59:29.477Z,8.27
2023-03-10T02:01:59.716Z,9.52
2023-03-10T02:04:37.055Z,9.75
2023-03-10T02:07:07.585Z,11.15
2023-03-10T02:09:39.241Z,8.45
2023-03-10T02:12:10.683Z,11.20
2023-03-10T02:14:40.200Z,15.48
2023-03-10T02:17:13.757Z,13.45
2023-03-10T02:19:57.567Z,8.07
2023-03-10T02:22:25.956Z,8.40
2023-03-10T02:24:57.390Z,9.10
2023-03-10T02:27:30.957Z,9.60
2023-03-10T02:30:05.133Z,7.57
2023-03-10T02:32:39.297Z,10.63
2023-03-10T02:35:08.642Z,7.50
2023-03-10T02:37:43.360Z,9.48
2023-03-10T02:40:34.020Z,9.52
2023-03-10T02:43:17.919Z,9.63
2023-03-10T02:45:49.308Z,10.73
2023-03-10T02:48:25.431Z,11.48
2023-03-10T02:50:56.627Z,8.27
2023-03-10T02:53:27.800Z,8.80
2023-03-10T02:55:57.257Z,10.32
2023-03-10T02:58:28.666Z,8.00
2023-03-10T03:00:57.781Z,7.10
2023-03-10T03:03:28.807Z,8.57
2023-03-10T03:05:59.755Z,11.95
2023-03-10T03:08:28.757Z,15.57
2023-03-10T03:10:56.982Z,9.48
2023-03-10T03:13:26.992Z,9.23
2023-03-10T03:15:55.583Z,11.63
2023-03-10T03:18:24.133Z,11.10
2023-03-10T03:20:54.697Z,9.20
2023-03-10T03:23:25.519Z,13.55
2023-03-10T03:25:53.935Z,11.65
2023-03-10T03:28:23.326Z,23.20
2023-03-10T03:30:55.160Z,16.80
2023-03-10T03:33:23.604Z,8.60
2023-03-10T03:35:52.125Z,9.98
2023-03-10T03:38:20.835Z,20.00
2023-03-10T03:40:49.453Z,8.93
2023-03-10T03:43:22.105Z,7.50
2023-03-10T03:45:50.661Z,11.68
2023-03-10T03:48:22.407Z,7.82
2023-03-10T03:50:52.561Z,12.25
2023-03-10T03:53:27.006Z,10.77
2023-03-10T03:55:57.409Z,6.75
2023-03-10T03:58:28.057Z,10.68
2023-03-10T04:00:56.270Z,12.48
2023-03-10T04:03:26.712Z,15.48
2023-03-10T04:05:55.002Z,23.85
2023-03-10T04:08:23.357Z,7.75
2023-03-10T04:10:52.846Z,6.88
2023-03-10T04:13:22.990Z,9.90
2023-03-10T04:15:56.607Z,13.68
2023-03-10T04:18:27.187Z,8.32
2023-03-10T04:20:56.027Z,9.75
2023-03-10T04:23:24.330Z,13.38
2023-03-10T04:25:52.803Z,13.48
2023-03-10T04:28:23.611Z,11.20
2023-03-10T04:30:52.444Z,11.45
2023-03-10T04:33:24.234Z,10.98
2023-03-10T04:35:54.492Z,14.52
2023-03-10T04:38:25.507Z,8.25
2023-03-10T04:40:55.799Z,6.75
2023-03-10T04:43:27.150Z,11.20
2023-03-10T04:45:56.451Z,11.50
2023-03-10T04:48:25.129Z,11.13
2023-03-10T04:50:58.788Z,8.23
2023-03-10T04:53:32.554Z,10.55
2023-03-10T04:56:01.969Z,5.43
2023-03-10T04:58:32.038Z,9.40
2023-03-10T05:01:03.621Z,9.75
2023-03-10T05:03:37.549Z,9.18
2023-03-10T05:06:15.453Z,11.63
2023-03-10T05:08:46.918Z,16.40
2023-03-10T05:11:16.249Z,7.97
2023-03-10T05:13:44.584Z,10.05
2023-03-10T05:16:17.108Z,16.17
2023-03-10T05:18:47.490Z,14.50
2023-03-10T05:21:21.645Z,9.18
2023-03-10T05:23:50.880Z,8.93
2023-03-10T05:26:20.663Z,12.02
2023-03-10T05:28:49.262Z,16.23
2023-03-10T05:31:26.060Z,10.80
2023-03-10T05:33:59.434Z,8.20
2023-03-10T05:36:29.225Z,10.27
2023-03-10T05:39:00.578Z,12.10
2023-03-10T05:41:30.101Z,12.93
2023-03-10T05:44:00.088Z,9.75
2023-03-10T05:46:29.854Z,13.88
2023-03-10T05:49:00.102Z,11.85
2023-03-10T05:51:30.278Z,23.30
2023-03-10T05:54:01.219Z,11.90
2023-03-10T05:56:31.307Z,9.35
2023-03-10T05:59:02.997Z,11.13
2023-03-10T06:01:34.758Z,15.70
2023-03-10T06:04:03.057Z,8.23
2023-03-10T06:06:32.655Z,9.73
2023-03-10T06:09:00.918Z,11.60
2023-03-10T06:11:29.350Z,16.52
2023-03-10T06:13:58.955Z,14.27
2023-03-10T06:16:27.248Z,17.85
2023-03-10T06:18:56.142Z,9.98
2023-03-10T06:21:25.328Z,13.68
2023-03-10T06:23:55.101Z,17.52
2023-03-10T06:26:24.411Z,14.77
2023-03-10T06:28:52.830Z,20.48
2023-03-10T06:31:24.482Z,16.10
2023-03-10T06:33:53.511Z,22.35
2023-03-10T06:36:22.819Z,26.90
2023-03-10T06:38:51.308Z,12.90
2023-03-10T06:41:21.811Z,15.73
2023-03-10T06:43:50.267Z,25.42
2023-03-10T06:46:18.679Z,18.42
2023-03-10T06:48:47.032Z,22.80
2023-03-10T06:51:17.907Z,25.75
2023-03-10T06:53:46.691Z,14.02
2023-03-10T06:56:16.945Z,16.60
2023-03-10T06:58:46.930Z,15.98
2023-03-10T07:01:25.155Z,11.18
2023-03-10T07:03:54.491Z,14.35
2023-03-10T07:06:22.950Z,19.80
2023-03-10T07:08:51.612Z,16.65
2023-03-10T07:11:20.325Z,18.17
2023-03-10T07:13:49.915Z,12.63
2023-03-10T07:16:18.222Z,11.75
2023-03-10T07:18:46.820Z,24.95
2023-03-10T07:21:17.659Z,27.95
2023-03-10T07:23:46.551Z,21.83
2023-03-10T07:26:16.204Z,20.88
2023-03-10T07:28:44.479Z,15.45
2023-03-10T07:31:15.737Z,15.13
2023-03-10T07:33:44.308Z,16.73
2023-03-10T07:36:14.898Z,17.63
2023-03-10T07:38:45.385Z,13.02
2023-03-10T07:41:16.185Z,12.73
2023-03-10T07:43:44.927Z,11.93
2023-03-10T07:46:16.360Z,16.45
2023-03-10T07:48:44.959Z,22.02
2023-03-10T07:51:13.555Z,20.90
2023-03-10T07:53:41.831Z,25.27
2023-03-10T07:56:11.928Z,20.15
2023-03-10T07:58:40.836Z,13.48
2023-03-10T08:01:14.807Z,20.67
2023-03-10T08:03:44.997Z,20.98
2023-03-10T08:06:17.922Z,22.63
2023-03-10T08:08:46.129Z,19.98
2023-03-10T08:11:17.082Z,15.70
2023-03-10T08:13:47.616Z,20.13
2023-03-10T08:16:17.295Z,17.73
2023-03-10T08:18:47.034Z,17.38
2023-03-10T08:21:15.269Z,20.13
2023-03-10T08:23:43.558Z,36.65
2023-03-10T08:26:15.191Z,16.70
2023-03-10T08:28:43.603Z,22.60
2023-03-10T08:31:13.870Z,19.70
2023-03-10T08:33:42.830Z,26.00
2023-03-10T08:36:16.401Z,14.38
2023-03-10T08:38:45.008Z,27.02
2023-03-10T08:41:15.476Z,25.15
2023-03-10T08:43:45.315Z,18.98
2023-03-10T08:46:14.906Z,17.08
2023-03-10T08:48:43.254Z,19.58
2023-03-10T08:51:16.700Z,18.58
2023-03-10T08:53:47.281Z,22.38
2023-03-10T08:56:16.727Z,16.77
2023-03-10T08:58:45.239Z,27.42
2023-03-10T09:01:14.411Z,18.27
2023-03-10T09:03:47.030Z,17.92
2023-03-10T09:06:17.001Z,18.42
2023-03-10T09:08:45.682Z,18.33
2023-03-10T09:11:17.728Z,15.30
2023-03-10T09:13:46.278Z,21.80
2023-03-10T09:16:14.579Z,19.15
2023-03-10T09:18:43.184Z,16.05
2023-03-10T09:21:14.113Z,27.58
2023-03-10T09:23:48.717Z,45.17
2023-03-10T09:26:17.354Z,20.92
2023-03-10T09:28:45.696Z,20.95
2023-03-10T09:31:18.166Z,20.75
2023-03-10T09:33:48.274Z,15.93
2023-03-10T09:36:16.997Z,21.40
2023-03-10T09:38:46.898Z,16.95
2023-03-10T09:41:42.742Z,18.07
2023-03-10T09:44:25.292Z,13.85
2023-03-10T09:47:12.012Z,27.88
2023-03-10T09:49:44.843Z,18.00
2023-03-10T09:52:25.026Z,21.37
2023-03-10T09:55:01.365Z,26.75
2023-03-10T09:57:31.645Z,17.48
2023-03-10T10:00:08.789Z,12.48
2023-03-10T10:02:41.711Z,17.48
2023-03-10T10:05:18.813Z,11.00
2023-03-10T10:07:50.939Z,21.63
2023-03-10T10:10:24.708Z,23.58
2023-03-10T10:12:55.113Z,16.83
2023-03-10T10:15:25.276Z,13.97
2023-03-10T10:18:17.998Z,20.20
2023-03-10T10:20:53.844Z,18.00
2023-03-10T10:23:26.524Z,14.10
2023-03-10T10:25:56.926Z,14.60
2023-03-10T10:28:34.194Z,14.10
2023-03-10T10:31:17.054Z,13.50
2023-03-10T10:33:57.775Z,9.83
2023-03-10T10:36:30.879Z,15.17
2023-03-10T10:39:00.279Z,18.70
2023-03-10T10:41:34.433Z,16.87
2023-03-10T10:44:09.507Z,13.23
2023-03-10T10:46:37.899Z,17.33
2023-03-10T10:49:21.121Z,19.03
2023-03-10T10:51:59.499Z,13.97
2023-03-10T10:54:30.422Z,12.30
2023-03-10T10:57:01.796Z,15.50
2023-03-10T10:59:33.876Z,12.30
2023-03-10T11:02:04.056Z,14.97
2023-03-10T11:04:44.748Z,15.13
2023-03-10T11:07:21.776Z,13.90
2023-03-10T11:09:50.141Z,21.27
2023-03-10T11:12:26.920Z,12.07
2023-03-10T11:15:12.452Z,13.70
2023-03-10T11:17:47.279Z,19.23
2023-03-10T11:20:32.897Z,15.30
2023-03-10T11:23:12.060Z,13.67
2023-03-10T11:25:45.717Z,11.67
2023-03-10T11:28:49.027Z,12.33
2023-03-10T11:31:35.206Z,9.53
2023-03-10T11:34:18.580Z,16.57
2023-03-10T11:36:56.218Z,13.87
2023-03-10T11:39:32.781Z,10.07
2023-03-10T11:42:08.207Z,24.43
2023-03-10T11:44:43.097Z,11.47
2023-03-10T11:47:20.873Z,13.00
2023-03-10T11:49:55.187Z,14.30
2023-03-10T11:52:27.586Z,13.63
2023-03-10T11:55:05.819Z,12.80
2023-03-10T11:57:40.911Z,12.87
2023-03-10T12:00:21.350Z,15.00
2023-03-10T12:03:05.189Z,15.97
2023-03-10T12:05:44.956Z,11.60
2023-03-10T12:08:15.105Z,14.40
2023-03-10T12:10:43.696Z,17.50
2023-03-10T12:13:23.668Z,13.47
2023-03-10T12:15:57.280Z,9.93
2023-03-10T12:18:26.945Z,12.47
2023-03-10T12:21:19.493Z,26.20
2023-03-10T12:23:49.368Z,12.97
2023-03-10T12:26:56.220Z,13.17
2023-03-10T12:29:35.777Z,7.23
2023-03-10T12:32:44.540Z,8.50
2023-03-10T12:35:49.062Z,13.53
2023-03-10T12:38:46.884Z,11.30
2023-03-10T12:41:35.840Z,8.43
2023-03-10T12:44:08.571Z,8.00
2023-03-10T12:46:42.220Z,6.10
2023-03-10T12:49:28.937Z,8.63
2023-03-10T12:52:11.019Z,8.13
2023-03-10T12:55:03.000Z,5.97
2023-03-10T12:57:36.226Z,6.80
2023-03-10T13:00:08.349Z,8.57
2023-03-10T13:02:44.892Z,4.03
2023-03-10T13:05:23.087Z,5.53
2023-03-10T13:07:55.415Z,8.87
2023-03-10T13:10:25.805Z,5.80
2023-03-10T13:13:00.788Z,4.77
2023-03-10T13:15:31.432Z,3.50
2023-03-10T13:18:12.330Z,4.63
2023-03-10T13:20:42.022Z,5.03
2023-03-10T13:23:22.722Z,5.93
2023-03-10T13:25:55.689Z,4.60
2023-03-10T13:28:24.277Z,5.30
2023-03-10T13:30:52.576Z,4.57
2023-03-10T13:33:25.415Z,6.60
2023-03-10T13:35:55.770Z,3.43
2023-03-10T13:38:25.398Z,3.33
2023-03-10T13:41:02.269Z,5.80
2023-03-10T13:43:36.575Z,5.40
2023-03-10T13:46:09.593Z,4.93
2023-03-10T13:48:38.602Z,4.93
2023-03-10T13:51:16.730Z,6.80
2023-03-10T13:53:45.025Z,3.10
2023-03-10T13:56:19.780Z,3.60
2023-03-10T13:58:53.349Z,4.80
2023-03-10T14:01:26.309Z,5.13
2023-03-10T14:03:57.292Z,3.67
2023-03-10T14:06:28.007Z,3.03
2023-03-10T14:08:56.427Z,3.70
2023-03-10T14:11:36.812Z,6.50
2023-03-10T14:14:08.069Z,5.33
2023-03-10T14:16:48.772Z,5.80
2023-03-10T14:19:48.994Z,5.23
2023-03-10T14:22:31.530Z,6.60
2023-03-10T14:25:01.326Z,3.70
2023-03-10T14:27:29.817Z,4.93
2023-03-10T14:30:01.831Z,4.73
2023-03-10T14:32:30.195Z,3.63
2023-03-10T14:34:58.347Z,5.63
2023-03-10T14:37:30.949Z,3.30
2023-03-10T14:39:59.202Z,3.30
2023-03-10T14:42:30.180Z,6.20
2023-03-10T14:45:05.420Z,5.60
2023-03-10T14:47:34.223Z,3.80
2023-03-10T14:50:03.245Z,7.13
2023-03-10T14:52:32.837Z,3.13
2023-03-10T14:55:04.123Z,4.60
2023-03-10T14:57:32.395Z,4.50
2023-03-10T15:00:00.630Z,2.60
2023-03-10T15:02:30.685Z,3.20
2023-03-10T15:04:58.954Z,7.77
2023-03-10T15:07:27.298Z,5.50
2023-03-10T15:10:10.551Z,8.70
2023-03-10T15:12:40.258Z,6.63
2023-03-10T15:15:15.514Z,4.23
2023-03-10T15:17:43.716Z,5.37
2023-03-10T15:20:16.511Z,4.23
2023-03-10T15:22:45.005Z,3.60
2023-03-10T15:25:19.226Z,5.80
2023-03-10T15:27:48.520Z,3.77
2023-03-10T15:30:19.974Z,5.10
2023-03-10T15:32:48.462Z,4.17
2023-03-10T15:35:17.361Z,3.63
2023-03-10T15:37:46.094Z,4.87
2023-03-10T15:40:23.821Z,4.70
2023-03-10T15:42:52.960Z,3.50
2023-03-10T15:45:21.215Z,6.53
2023-03-10T15:47:49.718Z,5.00
2023-03-10T15:50:20.186Z,3.63
2023-03-10T15:52:48.671Z,3.40
2023-03-10T15:55:18.913Z,2.90
2023-03-10T15:57:50.064Z,6.50
2023-03-10T16:00:23.063Z,4.93
2023-03-10T16:02:52.262Z,4.13
2023-03-10T16:05:21.379Z,5.03
2023-03-10T16:07:50.787Z,9.83
2023-03-10T16:10:22.566Z,5.10
2023-03-10T16:12:51.020Z,6.63
2023-03-10T16:15:19.754Z,4.77
2023-03-10T16:17:50.837Z,5.57
2023-03-10T16:20:19.937Z,5.77
2023-03-10T16:22:48.436Z,4.53
2023-03-10T16:25:21.629Z,5.53
2023-03-10T16:27:50.265Z,5.00
2023-03-10T16:30:19.874Z,4.50
2023-03-10T16:32:49.573Z,5.90
2023-03-10T16:35:19.398Z,4.37
2023-03-10T16:37:48.021Z,4.03
2023-03-10T16:40:16.753Z,3.57
2023-03-10T16:42:46.818Z,5.40
2023-03-10T16:45:16.442Z,4.57
2023-03-10T16:47:46.196Z,5.40
2023-03-10T16:50:14.701Z,4.60
2023-03-10T16:52:44.020Z,5.03
2023-03-10T16:55:18.427Z,3.13
2023-03-10T16:57:48.273Z,4.53
2023-03-10T17:00:21.114Z,7.60
2023-03-10T17:02:50.162Z,3.67
2023-03-10T17:05:23.031Z,3.20
2023-03-10T17:07:56.101Z,6.90
2023-03-10T17:10:26.884Z,4.40
2023-03-10T17:12:57.009Z,3.77
2023-03-10T17:15:27.530Z,3.33
2023-03-10T17:17:55.808Z,4.40
2023-03-10T17:20:27.348Z,3.17
2023-03-10T17:22:55.584Z,3.10
2023-03-10T17:25:24.056Z,11.30
2023-03-10T17:27:53.133Z,6.50
2023-03-10T17:30:22.866Z,6.20
2023-03-10T17:32:51.090Z,6.60
2023-03-10T17:35:19.475Z,3.93
2023-03-10T17:37:47.675Z,5.80
2023-03-10T17:40:17.348Z,5.50
2023-03-10T17:42:45.630Z,4.57
2023-03-10T17:45:14.017Z,4.77
2023-03-10T17:47:43.613Z,10.57
2023-03-10T17:50:12.852Z,3.37
2023-03-10T17:52:41.152Z,5.23
2023-03-10T17:55:09.857Z,3.83
2023-03-10T17:57:40.613Z,4.57
2023-03-10T18:00:10.875Z,3.70
2023-03-10T18:02:43.289Z,22.13
2023-03-10T18:05:13.034Z,5.00
2023-03-10T18:07:41.308Z,5.63
2023-03-10T18:10:11.228Z,5.27
2023-03-10T18:12:39.654Z,4.07
2023-03-10T18:15:08.938Z,5.63
2023-03-10T18:17:37.190Z,6.17
2023-03-10T18:20:10.094Z,4.13
2023-03-10T18:22:38.340Z,5.03
2023-03-10T18:25:07.279Z,4.77
2023-03-10T18:27:35.808Z,6.77
2023-03-10T18:30:05.346Z,4.57
2023-03-10T18:32:34.874Z,5.93
2023-03-10T18:35:04.140Z,3.97
2023-03-10T18:37:34.107Z,8.73
2023-03-10T18:40:02.612Z,8.90
2023-03-10T18:42:30.944Z,5.90
2023-03-10T18:44:59.140Z,4.07
2023-03-10T18:47:27.403Z,9.00
2023-03-10T18:49:55.681Z,4.03
2023-03-10T18:52:26.074Z,3.67
2023-03-10T18:55:00.802Z,4.90
2023-03-10T18:57:29.445Z,7.97
2023-03-10T18:59:59.253Z,5.60
2023-03-10T19:02:28.826Z,5.60
2023-03-10T19:04:59.555Z,10.80
2023-03-10T19:07:29.601Z,6.07
2023-03-10T19:09:59.216Z,12.30
2023-03-10T19:12:28.605Z,13.17
2023-03-10T19:14:59.350Z,6.37
2023-03-10T19:17:27.657Z,3.77
2023-03-10T19:19:55.955Z,6.03
2023-03-10T19:22:24.175Z,5.57
2023-03-10T19:24:52.448Z,8.07
2023-03-10T19:27:25.242Z,5.20
2023-03-10T19:29:53.622Z,4.87
2023-03-10T19:32:21.877Z,4.23
2023-03-10T19:34:50.157Z,8.20
2023-03-10T19:37:18.468Z,6.43
2023-03-10T19:39:46.696Z,7.23
2023-03-10T19:42:14.888Z,6.17
2023-03-10T19:44:44.471Z,7.30
2023-03-10T19:47:12.873Z,13.27
2023-03-10T19:49:41.066Z,4.03
2023-03-10T19:52:09.352Z,4.67
2023-03-10T19:54:38.218Z,6.17
2023-03-10T19:57:12.942Z,5.07
2023-03-10T19:59:43.566Z,4.60
2023-03-10T20:02:18.034Z,5.47
2023-03-10T20:04:50.763Z,3.57
2023-03-10T20:07:18.982Z,5.83
2023-03-10T20:09:51.823Z,5.60
2023-03-10T20:12:20.019Z,5.57
2023-03-10T20:14:51.477Z,9.20
2023-03-10T20:17:30.440Z,5.90
2023-03-10T20:20:00.772Z,6.23
2023-03-10T20:22:32.245Z,4.30
2023-03-10T20:25:03.271Z,6.00
2023-03-10T20:27:35.044Z,6.90
2023-03-10T20:30:06.596Z,5.47
2023-03-10T20:32:36.886Z,4.30
2023-03-10T20:35:06.332Z,4.10
2023-03-10T20:37:35.919Z,4.30
2023-03-10T20:40:05.741Z,11.70
2023-03-10T20:42:34.183Z,8.73
2023-03-10T20:45:02.990Z,11.77
2023-03-10T20:47:31.144Z,8.10
2023-03-10T20:50:00.926Z,5.83
2023-03-10T20:52:29.082Z,5.63
2023-03-10T20:54:57.583Z,7.63
2023-03-10T20:57:30.957Z,4.63
2023-03-10T20:59:59.181Z,5.17
2023-03-10T21:02:27.546Z,4.90
2023-03-10T21:04:56.644Z,6.53
2023-03-10T21:07:26.272Z,8.20
2023-03-10T21:09:54.682Z,9.73
2023-03-10T21:12:22.902Z,9.73
2023-03-10T21:14:51.285Z,7.93
2023-03-10T21:17:19.693Z,5.90
2023-03-10T21:19:51.052Z,5.07
2023-03-10T21:22:19.448Z,8.20
2023-03-10T21:24:51.257Z,5.60
2023-03-10T21:27:20.946Z,5.90
2023-03-10T21:29:49.359Z,11.30
2023-03-10T21:32:17.625Z,8.93
2023-03-10T21:34:46.464Z,5.60
2023-03-10T21:37:17.064Z,7.70
2023-03-10T21:39:45.365Z,7.30
2023-03-10T21:42:16.770Z,8.50
2023-03-10T21:44:45.071Z,7.40
2023-03-10T21:47:15.662Z,11.57
2023-03-10T21:49:43.962Z,8.07
2023-03-10T21:52:14.112Z,15.40
2023-03-10T21:54:43.069Z,13.90
2023-03-10T21:57:11.901Z,11.67
2023-03-10T21:59:41.533Z,11.07
2023-03-10T22:02:12.490Z,11.83
2023-03-10T22:04:40.801Z,7.10
2023-03-10T22:07:08.963Z,16.57
2023-03-10T22:09:38.692Z,15.90
2023-03-10T22:12:07.181Z,9.30
2023-03-10T22:14:35.477Z,9.93
2023-03-10T22:17:05.038Z,21.57
2023-03-10T22:19:33.260Z,15.83
2023-03-10T22:22:03.603Z,13.33
2023-03-10T22:24:31.805Z,13.23
2023-03-10T22:27:00.092Z,12.17
2023-03-10T22:29:28.333Z,17.20
2023-03-10T22:31:57.867Z,18.80
2023-03-10T22:34:27.498Z,15.70
2023-03-10T22:36:55.705Z,13.87
2023-03-10T22:39:24.684Z,12.97
2023-03-10T22:41:53.199Z,13.20
2023-03-10T22:44:21.484Z,18.23
2023-03-10T22:46:49.819Z,12.93
2023-03-10T22:49:31.206Z,12.23
2023-03-10T22:52:02.617Z,11.23
2023-03-10T22:54:33.980Z,12.30
2023-03-10T22:57:02.215Z,17.50
2023-03-10T22:59:30.487Z,19.67
2023-03-10T23:02:01.041Z,18.00
2023-03-10T23:04:32.365Z,13.73
2023-03-10T23:07:01.940Z,20.43
2023-03-10T23:09:30.232Z,15.97
2023-03-10T23:11:58.491Z,14.30
2023-03-10T23:14:26.777Z,15.83
2023-03-10T23:16:54.994Z,22.97
2023-03-10T23:19:23.287Z,16.70
2023-03-10T23:21:51.538Z,13.50
2023-03-10T23:24:21.122Z,14.67
2023-03-10T23:26:49.297Z,23.87
2023-03-10T23:29:17.501Z,13.40
2023-03-10T23:31:45.753Z,21.53
2023-03-10T23:34:16.470Z,16.67
2023-03-10T23:36:47.663Z,19.03
2023-03-10T23:39:18.157Z,18.30
2023-03-10T23:41:50.072Z,18.40
2023-03-10T23:44:21.000Z,15.83
2023-03-10T23:46:52.485Z,17.07
2023-03-10T23:49:22.216Z,16.53
2023-03-10T23:51:53.281Z,33.83
2023-03-10T23:54:22.505Z,13.20
2023-03-10T23:56:52.237Z,15.90
2023-03-10T23:59:23.760Z,18.63
